createdAt,value
2022-09-20T00:01:12.840Z,0.45
2022-09-20T00:03:42.683Z,0.52
2022-09-20T00:06:13.417Z,0.77
2022-09-20T00:08:41.176Z,0.67
2022-09-20T00:11:14.668Z,0.68
2022-09-20T00:13:43.538Z,0.50
2022-09-20T00:16:13.646Z,1.40
2022-09-20T00:18:41.575Z,0.70
2022-09-20T00:21:16.076Z,0.63
2022-09-20T00:23:42.976Z,0.30
2022-09-20T00:26:09.917Z,0.30
2022-09-20T00:28:37.013Z,0.65
2022-09-20T00:31:04.970Z,0.60
2022-09-20T00:33:50.479Z,0.40
2022-09-20T00:36:17.536Z,0.30
2022-09-20T00:38:44.499Z,0.40
2022-09-20T00:41:11.896Z,0.30
2022-09-20T00:43:41.946Z,0.35
2022-09-20T00:46:44.213Z,0.40
2022-09-20T00:49:21.098Z,0.32
2022-09-20T00:51:55.427Z,0.30
2022-09-20T00:54:25.251Z,0.43
2022-09-20T00:56:52.570Z,0.73
2022-09-20T00:59:21.987Z,0.32
2022-09-20T01:02:08.528Z,0.30
2022-09-20T01:04:39.095Z,0.50
2022-09-20T01:07:09.310Z,0.47
2022-09-20T01:09:36.789Z,0.38
2022-09-20T01:12:13.746Z,0.35
2022-09-20T01:14:43.204Z,0.30
2022-09-20T01:17:11.467Z,0.40
2022-09-20T01:19:59.437Z,0.30
2022-09-20T01:22:52.587Z,0.22
2022-09-20T01:25:22.591Z,0.40
2022-09-20T01:27:52.333Z,0.60
2022-09-20T01:30:31.045Z,0.55
2022-09-20T01:33:00.854Z,0.35
2022-09-20T01:35:28.858Z,0.30
2022-09-20T01:38:16.163Z,0.30
2022-09-20T01:40:55.574Z,0.60
2022-09-20T01:43:52.958Z,0.63
2022-09-20T01:46:32.989Z,0.45
2022-09-20T01:49:35.103Z,0.45
2022-09-20T01:52:20.864Z,0.80
2022-09-20T01:55:11.825Z,0.45
2022-09-20T01:57:38.688Z,0.30
2022-09-20T02:00:13.347Z,0.20
2022-09-20T02:03:27.479Z,0.82
2022-09-20T02:06:13.282Z,0.30
2022-09-20T02:09:15.109Z,0.63
2022-09-20T02:11:54.374Z,0.50
2022-09-20T02:14:45.822Z,0.45
2022-09-20T02:17:31.341Z,0.60
2022-09-20T02:20:40.103Z,0.47
2022-09-20T02:23:29.289Z,0.30
2022-09-20T02:26:11.473Z,0.52
2022-09-20T02:28:54.992Z,0.52
2022-09-20T02:31:42.230Z,0.40
2022-09-20T02:34:32.623Z,0.43
2022-09-20T02:37:06.794Z,0.80
2022-09-20T02:39:45.408Z,0.50
2022-09-20T02:42:25.755Z,0.30
2022-09-20T02:45:18.854Z,0.40
2022-09-20T02:47:47.451Z,0.70
2022-09-20T02:50:47.752Z,0.40
2022-09-20T02:53:41.039Z,0.57
2022-09-20T02:56:25.350Z,0.40
2022-09-20T02:59:01.277Z,0.68
2022-09-20T03:02:07.373Z,0.77
2022-09-20T03:04:35.106Z,1.52
2022-09-20T03:07:25.058Z,1.55
2022-09-20T03:10:23.951Z,1.20
2022-09-20T03:13:09.948Z,1.63
2022-09-20T03:16:09.595Z,1.08
2022-09-20T03:18:58.214Z,0.60
2022-09-20T03:22:02.372Z,0.60
2022-09-20T03:24:44.872Z,0.60
2022-09-20T03:27:14.780Z,0.60
2022-09-20T03:29:41.652Z,0.50
2022-09-20T03:32:26.747Z,0.65
2022-09-20T03:35:21.038Z,0.50
2022-09-20T03:38:03.125Z,0.40
2022-09-20T03:40:36.200Z,0.40
2022-09-20T03:43:25.245Z,0.52
2022-09-20T03:45:57.565Z,0.70
2022-09-20T03:48:54.516Z,0.90
2022-09-20T03:51:53.602Z,0.60
2022-09-20T03:54:38.591Z,1.23
2022-09-20T03:57:18.693Z,0.90
2022-09-20T04:00:04.070Z,0.90
2022-09-20T04:02:38.547Z,1.00
2022-09-20T04:05:18.311Z,0.80
2022-09-20T04:08:00.318Z,0.80
2022-09-20T04:10:36.358Z,0.93
2022-09-20T04:13:35.947Z,0.88
2022-09-20T04:16:28.359Z,0.93
2022-09-20T04:21:51.815Z,0.95
2022-09-20T04:24:38.190Z,1.33
2022-09-20T04:27:42.232Z,1.40
2022-09-20T04:30:29.907Z,1.00
2022-09-20T04:33:11.956Z,1.10
2022-09-20T04:36:10.465Z,1.20
2022-09-20T04:38:38.497Z,1.05
2022-09-20T04:41:08.902Z,1.23
2022-09-20T04:43:53.669Z,1.20
2022-09-20T04:46:24.440Z,1.27
2022-09-20T04:49:15.851Z,1.20
2022-09-20T04:52:16.663Z,1.08
2022-09-20T04:55:30.041Z,0.98
2022-09-20T04:58:24.805Z,0.75
2022-09-20T05:01:19.865Z,0.47
2022-09-20T05:04:06.169Z,0.50
2022-09-20T05:06:43.402Z,0.52
2022-09-20T05:09:33.489Z,0.90
2022-09-20T05:12:05.687Z,0.70
2022-09-20T05:14:51.099Z,0.70
2022-09-20T05:17:31.611Z,0.60
2022-09-20T05:20:25.311Z,0.65
2022-09-20T05:23:01.072Z,0.40
2022-09-20T05:25:55.375Z,0.70
2022-09-20T05:28:38.615Z,0.80
2022-09-20T05:31:40.830Z,1.25
2022-09-20T05:34:29.311Z,0.80
2022-09-20T05:37:15.327Z,0.80
2022-09-20T05:40:20.097Z,1.40
2022-09-20T05:42:54.299Z,1.70
2022-09-20T05:46:23.120Z,1.13
2022-09-20T05:49:10.781Z,1.73
2022-09-20T05:52:11.715Z,2.13
2022-09-20T05:54:44.410Z,2.30
2022-09-20T05:57:32.604Z,2.10
2022-09-20T06:00:10.406Z,1.90
2022-09-20T06:02:51.218Z,1.95
2022-09-20T06:05:18.228Z,2.13
2022-09-20T06:08:30.366Z,1.75
2022-09-20T06:13:35.594Z,1.50
2022-09-20T06:16:09.759Z,1.30
2022-09-20T06:18:50.322Z,1.33
2022-09-20T06:21:54.187Z,1.02
2022-09-20T06:24:29.525Z,1.88
2022-09-20T06:26:57.891Z,1.50
2022-09-20T06:29:33.225Z,1.13
2022-09-20T06:32:00.304Z,3.10
2022-09-20T06:34:28.914Z,1.60
2022-09-20T06:37:27.519Z,2.40
2022-09-20T06:40:40.697Z,1.95
2022-09-20T06:43:07.766Z,1.73
2022-09-20T06:45:35.319Z,1.70
2022-09-20T06:48:02.507Z,2.08
2022-09-20T06:50:29.441Z,2.22
2022-09-20T06:52:56.668Z,1.92
2022-09-20T06:55:30.026Z,2.30
2022-09-20T06:57:57.326Z,2.00
2022-09-20T07:00:24.521Z,1.45
2022-09-20T07:02:51.490Z,1.90
2022-09-20T07:05:22.008Z,1.10
2022-09-20T07:07:48.917Z,1.52
2022-09-20T07:10:16.121Z,1.50
2022-09-20T07:12:43.059Z,1.05
2022-09-20T07:15:10.398Z,1.40
2022-09-20T07:17:37.344Z,2.00
2022-09-20T07:20:04.649Z,1.10
2022-09-20T07:22:31.659Z,1.08
2022-09-20T07:25:02.519Z,1.40
2022-09-20T07:27:30.063Z,0.90
2022-09-20T07:29:57.097Z,1.08
2022-09-20T07:32:24.060Z,0.70
2022-09-20T07:34:50.966Z,0.90
2022-09-20T07:37:19.414Z,1.20
2022-09-20T07:39:46.406Z,1.33
2022-09-20T07:42:14.195Z,1.65
2022-09-20T07:44:42.360Z,1.23
2022-09-20T07:47:15.093Z,1.77
2022-09-20T07:49:42.033Z,1.48
2022-09-20T07:52:11.229Z,1.63
2022-09-20T07:54:38.255Z,1.90
2022-09-20T07:57:05.792Z,1.33
2022-09-20T07:59:32.782Z,1.30
2022-09-20T08:02:00.890Z,1.20
2022-09-20T08:04:27.833Z,1.20
2022-09-20T08:06:54.775Z,1.00
2022-09-20T08:09:21.811Z,0.70
2022-09-20T08:11:49.485Z,0.40
2022-09-20T08:14:17.990Z,0.38
2022-09-20T08:16:47.597Z,0.10
2022-09-20T08:19:22.990Z,0.20
2022-09-20T08:21:54.327Z,0.10
2022-09-20T08:24:22.171Z,0.13
2022-09-20T08:26:49.184Z,0.20
2022-09-20T08:29:16.201Z,0.47
2022-09-20T08:31:43.497Z,0.10
2022-09-20T08:34:12.755Z,0.20
2022-09-20T08:36:44.216Z,0.00
2022-09-20T08:42:02.247Z,0.00
2022-09-20T08:44:36.266Z,0.20
2022-09-20T08:47:21.251Z,0.00
2022-09-20T08:49:50.139Z,0.20
2022-09-20T08:52:21.483Z,0.00
2022-09-20T08:54:48.426Z,0.00
2022-09-20T08:57:18.210Z,0.00
2022-09-20T08:59:45.567Z,0.03
2022-09-20T09:02:19.638Z,0.00
2022-09-20T09:04:48.712Z,0.00
2022-09-20T09:07:21.835Z,0.05
2022-09-20T09:09:52.694Z,0.03
2022-09-20T09:12:22.427Z,0.00
2022-09-20T09:14:57.479Z,0.00
2022-09-20T09:17:28.153Z,0.00
2022-09-20T09:20:00.288Z,0.10
2022-09-20T09:22:44.056Z,0.10
2022-09-20T09:25:23.905Z,0.10
2022-09-20T09:27:58.494Z,0.10
2022-09-20T09:30:51.979Z,0.00
2022-09-20T09:33:30.195Z,0.00
2022-09-20T09:36:15.169Z,0.00
2022-09-20T09:38:47.125Z,0.10
2022-09-20T09:41:35.915Z,0.20
2022-09-20T09:44:26.227Z,0.10
2022-09-20T09:46:53.815Z,0.10
2022-09-20T09:49:36.079Z,0.00
2022-09-20T09:52:13.255Z,0.00
2022-09-20T09:54:59.990Z,0.00
2022-09-20T09:57:55.274Z,0.00
2022-09-20T10:00:24.081Z,0.10
2022-09-20T10:03:17.053Z,0.00
2022-09-20T10:06:30.589Z,0.00
2022-09-20T10:09:07.313Z,0.10
2022-09-20T10:12:08.585Z,0.00
2022-09-20T10:15:11.765Z,0.00
2022-09-20T10:18:01.007Z,0.00
2022-09-20T10:21:17.087Z,0.03
2022-09-20T10:24:13.470Z,0.00
2022-09-20T10:26:55.777Z,0.00
2022-09-20T10:29:35.383Z,0.00
2022-09-20T10:32:32.156Z,0.05
2022-09-20T10:35:40.930Z,0.00
2022-09-20T10:38:44.716Z,0.00
2022-09-20T10:42:08.059Z,0.10
2022-09-20T10:45:03.139Z,0.15
2022-09-20T10:48:10.036Z,0.10
2022-09-20T10:50:43.155Z,0.10
2022-09-20T10:53:39.798Z,0.10
2022-09-20T10:56:24.102Z,0.10
2022-09-20T10:59:20.154Z,0.00
2022-09-20T11:02:06.455Z,0.10
2022-09-20T11:05:09.899Z,0.10
2022-09-20T11:07:54.788Z,0.10
2022-09-20T11:10:46.233Z,0.10
2022-09-20T11:13:36.156Z,0.20
2022-09-20T11:16:27.670Z,0.17
2022-09-20T11:19:05.541Z,0.10
2022-09-20T11:21:37.731Z,0.25
2022-09-20T11:24:19.631Z,0.95
2022-09-20T11:26:58.075Z,0.10
2022-09-20T11:29:41.281Z,0.20
2022-09-20T11:32:29.851Z,0.38
2022-09-20T11:35:12.223Z,0.45
2022-09-20T11:37:47.236Z,0.10
2022-09-20T11:40:31.506Z,0.08
2022-09-20T11:43:03.897Z,0.10
2022-09-20T11:45:31.467Z,0.10
2022-09-20T11:48:10.400Z,0.20
2022-09-20T11:59:54.727Z,0.13
2022-09-20T12:02:50.218Z,0.20
2022-09-20T12:05:43.874Z,0.20
2022-09-20T12:08:32.488Z,0.10
2022-09-20T12:11:05.867Z,0.10
2022-09-20T12:13:36.834Z,0.00
2022-09-20T12:16:34.835Z,0.10
2022-09-20T12:19:03.765Z,0.45
2022-09-20T12:21:30.747Z,0.20
2022-09-20T12:23:57.650Z,0.20
2022-09-20T12:26:27.637Z,0.40
2022-09-20T12:29:00.704Z,0.20
2022-09-20T12:31:32.285Z,0.30
2022-09-20T12:36:36.661Z,0.20
2022-09-20T12:39:14.385Z,0.40
2022-09-20T12:41:56.583Z,0.17
2022-09-20T12:44:43.066Z,0.10
2022-09-20T12:47:13.003Z,0.20
2022-09-20T12:50:04.468Z,0.10
2022-09-20T12:52:50.091Z,0.20
2022-09-20T12:55:51.580Z,0.30
2022-09-20T12:58:46.536Z,0.20
2022-09-20T13:01:14.591Z,0.20
2022-09-20T13:03:45.825Z,0.10
2022-09-20T13:06:16.711Z,0.10
2022-09-20T13:09:02.227Z,0.32
2022-09-20T13:12:04.880Z,0.20
2022-09-20T13:14:34.882Z,0.10
2022-09-20T13:17:30.036Z,0.10
2022-09-20T13:19:57.987Z,0.20
2022-09-20T13:22:37.952Z,0.30
2022-09-20T13:25:07.272Z,0.10
2022-09-20T13:27:54.041Z,0.10
2022-09-20T13:30:32.695Z,0.20
2022-09-20T13:33:25.190Z,0.10
2022-09-20T13:35:58.194Z,0.30
2022-09-20T13:38:30.073Z,0.30
2022-09-20T13:41:10.872Z,0.40
2022-09-20T13:43:41.471Z,0.20
2022-09-20T13:46:10.486Z,0.13
2022-09-20T13:48:38.425Z,0.20
2022-09-20T13:51:17.552Z,0.20
2022-09-20T13:53:45.007Z,0.28
2022-09-20T13:56:24.431Z,0.20
2022-09-20T13:58:52.838Z,0.55
2022-09-20T14:01:35.401Z,0.20
2022-09-20T14:04:08.615Z,0.30
2022-09-20T14:06:36.470Z,0.15
2022-09-20T14:09:10.817Z,0.35
2022-09-20T14:11:39.402Z,0.70
2022-09-20T14:14:08.101Z,0.43
2022-09-20T14:16:39.115Z,0.30
2022-09-20T14:19:09.923Z,0.30
2022-09-20T14:21:38.330Z,0.30
2022-09-20T14:24:26.125Z,0.10
2022-09-20T14:27:16.536Z,0.10
2022-09-20T14:29:46.065Z,0.20
2022-09-20T14:32:19.166Z,0.13
2022-09-20T14:34:51.671Z,0.28
2022-09-20T14:37:27.909Z,0.30
2022-09-20T14:39:57.780Z,0.20
2022-09-20T14:42:33.884Z,0.20
2022-09-20T14:45:02.097Z,0.20
2022-09-20T14:47:40.208Z,0.10
2022-09-20T14:50:29.001Z,0.32
2022-09-20T14:53:11.079Z,0.25
2022-09-20T14:56:16.684Z,0.30
2022-09-20T14:59:03.780Z,0.30
2022-09-20T15:01:30.810Z,0.15
2022-09-20T15:03:58.656Z,0.10
2022-09-20T15:06:26.128Z,0.15
2022-09-20T15:08:53.468Z,0.32
2022-09-20T15:11:20.696Z,0.10
2022-09-20T15:13:47.712Z,0.08
2022-09-20T15:16:18.587Z,0.30
2022-09-20T15:18:45.666Z,0.77
2022-09-20T15:21:13.071Z,1.55
2022-09-20T15:23:40.592Z,1.10
2022-09-20T15:26:09.962Z,0.73
2022-09-20T15:28:37.153Z,0.60
2022-09-20T15:31:04.243Z,0.90
2022-09-20T15:33:32.665Z,0.90
2022-09-20T15:36:02.243Z,0.68
2022-09-20T15:38:29.270Z,0.38
2022-09-20T15:40:56.164Z,0.47
2022-09-20T15:43:26.459Z,0.15
2022-09-20T15:46:00.496Z,0.30
2022-09-20T15:48:30.070Z,0.30
2022-09-20T15:51:04.330Z,0.20
2022-09-20T15:53:36.310Z,0.20
2022-09-20T15:56:05.679Z,0.20
2022-09-20T15:58:36.173Z,0.10
2022-09-20T16:01:08.502Z,0.10
2022-09-20T16:03:36.329Z,0.10
2022-09-20T16:06:05.990Z,0.20
2022-09-20T16:08:38.893Z,0.10
2022-09-20T16:11:07.639Z,0.20
2022-09-20T16:13:37.642Z,0.10
2022-09-20T16:16:06.196Z,0.20
2022-09-20T16:18:52.077Z,0.50
2022-09-20T16:21:19.995Z,3.40
2022-09-20T16:23:49.076Z,0.98
2022-09-20T16:26:16.336Z,0.35
2022-09-20T16:28:47.266Z,0.43
2022-09-20T16:31:43.828Z,1.13
2022-09-20T16:34:10.944Z,1.40
2022-09-20T16:36:38.985Z,0.88
2022-09-20T16:39:06.459Z,0.55
2022-09-20T16:41:33.916Z,0.70
2022-09-20T16:44:00.995Z,0.43
2022-09-20T16:46:28.346Z,0.30
2022-09-20T16:48:56.930Z,0.70
2022-09-20T16:51:26.065Z,0.60
2022-09-20T16:53:56.234Z,0.30
2022-09-20T16:56:25.801Z,0.52
2022-09-20T16:58:53.752Z,0.50
2022-09-20T17:01:21.284Z,0.60
2022-09-20T17:03:48.611Z,0.30
2022-09-20T17:06:16.956Z,0.35
2022-09-20T17:08:46.128Z,0.30
2022-09-20T17:11:21.787Z,0.40
2022-09-20T17:13:51.484Z,0.38
2022-09-20T17:16:30.011Z,0.30
2022-09-20T17:19:02.294Z,0.60
2022-09-20T17:21:30.389Z,0.77
2022-09-20T17:24:02.776Z,3.55
2022-09-20T17:26:37.908Z,1.50
2022-09-20T17:29:13.446Z,1.70
2022-09-20T17:31:54.477Z,2.30
2022-09-20T17:34:28.083Z,1.35
2022-09-20T17:36:55.534Z,1.30
2022-09-20T17:39:23.151Z,1.00
2022-09-20T17:41:51.046Z,1.73
2022-09-20T17:44:18.090Z,3.08
2022-09-20T17:46:48.052Z,7.55
2022-09-20T17:49:18.224Z,11.73
2022-09-20T17:51:53.565Z,3.10
2022-09-20T17:54:21.262Z,1.23
2022-09-20T17:56:50.464Z,1.58
2022-09-20T17:59:18.772Z,1.65
2022-09-20T18:01:48.027Z,3.30
2022-09-20T18:04:15.111Z,1.80
2022-09-20T18:06:46.200Z,2.20
2022-09-20T18:09:21.854Z,3.92
2022-09-20T18:11:53.568Z,1.95
2022-09-20T18:16:54.599Z,3.90
2022-09-20T18:19:23.029Z,4.32
2022-09-20T18:21:50.355Z,2.30
2022-09-20T18:24:17.441Z,2.90
2022-09-20T18:26:44.642Z,2.40
2022-09-20T18:29:14.246Z,1.00
2022-09-20T18:31:45.652Z,1.30
2022-09-20T18:34:18.143Z,0.60
2022-09-20T18:36:54.203Z,0.43
2022-09-20T18:39:26.149Z,0.52
2022-09-20T18:41:53.744Z,0.52
2022-09-20T18:44:23.094Z,0.40
2022-09-20T18:46:53.468Z,0.50
2022-09-20T18:49:21.692Z,0.70
2022-09-20T18:51:49.685Z,2.08
2022-09-20T18:54:17.906Z,7.60
2022-09-20T18:56:47.274Z,2.95
2022-09-20T18:59:25.000Z,7.63
2022-09-20T19:02:11.815Z,8.50
2022-09-20T19:05:30.278Z,7.90
2022-09-20T19:08:10.489Z,9.48
2022-09-20T19:10:58.623Z,9.90
2022-09-20T19:13:45.201Z,6.68
2022-09-20T19:16:20.071Z,4.57
2022-09-20T19:18:59.057Z,4.80
2022-09-20T19:21:39.317Z,3.53
2022-09-20T19:24:19.284Z,3.30
2022-09-20T19:26:47.223Z,4.13
2022-09-20T19:29:22.913Z,2.40
2022-09-20T19:31:54.447Z,2.55
2022-09-20T19:34:27.656Z,1.83
2022-09-20T19:37:18.872Z,1.40
2022-09-20T19:40:18.790Z,1.10
2022-09-20T19:42:53.211Z,0.77
2022-09-20T19:45:36.002Z,0.40
2022-09-20T19:48:25.211Z,0.40
2022-09-20T19:50:53.138Z,0.30
2022-09-20T19:53:24.226Z,0.68
2022-09-20T19:56:00.391Z,0.30
2022-09-20T19:58:28.177Z,0.95
2022-09-20T20:00:55.350Z,1.40
2022-09-20T20:03:26.438Z,0.90
2022-09-20T20:05:58.828Z,1.05
2022-09-20T20:08:37.782Z,1.38
2022-09-20T20:11:10.278Z,1.48
2022-09-20T20:13:59.734Z,1.40
2022-09-20T20:16:45.027Z,1.20
2022-09-20T20:19:30.936Z,1.10
2022-09-20T20:22:04.462Z,1.30
2022-09-20T20:24:48.737Z,1.20
2022-09-20T20:27:16.080Z,1.38
2022-09-20T20:29:43.737Z,1.30
2022-09-20T20:32:12.410Z,1.33
2022-09-20T20:34:39.772Z,1.40
2022-09-20T20:37:07.958Z,1.10
2022-09-20T20:39:35.183Z,1.13
2022-09-20T20:42:03.115Z,1.05
2022-09-20T20:44:36.657Z,1.20
2022-09-20T20:47:05.112Z,1.20
2022-09-20T20:49:32.386Z,1.40
2022-09-20T20:52:04.094Z,1.33
2022-09-20T20:56:59.631Z,1.35
2022-09-20T20:59:26.943Z,1.30
2022-09-20T21:01:54.191Z,1.42
2022-09-20T21:04:21.793Z,1.20
2022-09-20T21:06:50.513Z,1.15
2022-09-20T21:09:17.473Z,1.45
2022-09-20T21:11:44.942Z,1.27
2022-09-20T21:14:13.050Z,1.35
2022-09-20T21:16:43.369Z,1.52
2022-09-20T21:19:16.958Z,1.30
2022-09-20T21:21:46.208Z,1.40
2022-09-20T21:24:18.635Z,1.10
2022-09-20T21:26:48.685Z,1.33
2022-09-20T21:29:16.699Z,1.70
2022-09-20T21:31:46.670Z,1.55
2022-09-20T21:34:15.515Z,1.42
2022-09-20T21:36:49.087Z,1.27
2022-09-20T21:39:16.444Z,1.30
2022-09-20T21:41:43.424Z,1.30
2022-09-20T21:44:10.817Z,1.08
2022-09-20T21:46:41.977Z,1.65
2022-09-20T21:49:11.408Z,0.93
2022-09-20T21:51:41.434Z,0.60
2022-09-20T21:54:09.452Z,0.80
2022-09-20T21:56:38.004Z,0.60
2022-09-20T21:59:07.255Z,0.50
2022-09-20T22:01:37.387Z,0.80
2022-09-20T22:04:07.016Z,0.80
2022-09-20T22:06:37.084Z,0.80
2022-09-20T22:09:12.203Z,0.60
2022-09-20T22:11:42.470Z,0.50
2022-09-20T22:14:11.285Z,0.80
2022-09-20T22:16:40.500Z,0.60
2022-09-20T22:19:10.130Z,0.50
2022-09-20T22:21:39.636Z,0.70
2022-09-20T22:24:08.904Z,0.50
2022-09-20T22:26:38.607Z,0.50
2022-09-20T22:29:06.637Z,0.50
2022-09-20T22:31:36.045Z,0.35
2022-09-20T22:34:05.090Z,0.60
2022-09-20T22:36:34.518Z,0.52
2022-09-20T22:39:02.357Z,0.30
2022-09-20T22:41:29.562Z,0.30
2022-09-20T22:43:56.703Z,0.30
2022-09-20T22:46:26.083Z,0.22
2022-09-20T22:48:53.123Z,0.25
2022-09-20T22:51:23.552Z,0.40
2022-09-20T22:53:52.835Z,0.30
2022-09-20T22:56:25.016Z,0.32
2022-09-20T22:58:55.454Z,0.35
2022-09-20T23:01:25.550Z,0.20
2022-09-20T23:03:58.609Z,0.50
2022-09-20T23:06:36.100Z,0.50
2022-09-20T23:09:05.595Z,0.40
2022-09-20T23:11:32.770Z,0.55
2022-09-20T23:14:02.122Z,0.38
2022-09-20T23:16:30.828Z,0.40
2022-09-20T23:18:59.970Z,0.22
2022-09-20T23:21:27.934Z,0.30
2022-09-20T23:24:00.457Z,0.30
2022-09-20T23:26:29.819Z,0.43
2022-09-20T23:29:17.226Z,0.30
2022-09-20T23:31:46.772Z,0.40
2022-09-20T23:34:15.363Z,0.30
2022-09-20T23:36:42.923Z,0.40
2022-09-20T23:39:11.074Z,0.43
2022-09-20T23:41:39.007Z,0.50
2022-09-20T23:44:06.822Z,0.50
2022-09-20T23:46:34.401Z,0.50
2022-09-20T23:49:01.814Z,0.63
2022-09-20T23:51:29.531Z,0.40
2022-09-20T23:53:57.048Z,0.50
2022-09-20T23:56:24.944Z,0.40
2022-09-20T23:58:52.186Z,0.60
